createdAt,value
2022-11-25T00:01:29.401Z,96788.00
2022-11-25T00:03:57.816Z,96798.00
2022-11-25T00:06:30.791Z,96788.00
2022-11-25T00:09:03.454Z,96791.00
2022-11-25T00:11:30.689Z,96796.00
2022-11-25T00:13:58.245Z,96800.00
2022-11-25T00:16:26.628Z,96796.00
2022-11-25T00:18:55.791Z,96801.00
2022-11-25T00:21:26.157Z,96797.00
2022-11-25T00:23:59.333Z,96788.00
2022-11-25T00:26:27.971Z,96791.00
2022-11-25T00:28:57.640Z,96784.00
2022-11-25T00:31:28.517Z,96787.00
2022-11-25T00:33:55.628Z,96801.00
2022-11-25T00:36:30.925Z,96797.00
2022-11-25T00:39:00.966Z,96802.00
2022-11-25T00:41:47.975Z,96806.00
2022-11-25T00:44:37.023Z,96806.00
2022-11-25T00:47:15.370Z,96792.00
2022-11-25T00:49:48.802Z,96796.00
2022-11-25T00:52:20.160Z,96798.00
2022-11-25T00:54:47.709Z,96791.00
2022-11-25T00:57:16.614Z,96790.00
2022-11-25T00:59:43.381Z,96800.00
2022-11-25T01:02:12.218Z,96805.00
2022-11-25T01:04:39.551Z,96807.00
2022-11-25T01:07:07.238Z,96800.00
2022-11-25T01:09:34.738Z,96801.00
2022-11-25T01:12:01.610Z,96790.00
2022-11-25T01:14:28.358Z,96788.00
2022-11-25T01:16:55.238Z,96788.00
2022-11-25T01:19:22.013Z,96791.00
2022-11-25T01:21:49.101Z,96787.00
2022-11-25T01:24:16.848Z,96783.00
2022-11-25T01:26:44.643Z,96790.00
2022-11-25T01:29:17.785Z,96777.00
2022-11-25T01:31:45.851Z,96779.00
2022-11-25T01:34:17.095Z,96784.00
2022-11-25T01:36:44.469Z,96775.00
2022-11-25T01:39:17.358Z,96772.00
2022-11-25T01:41:44.479Z,96778.00
2022-11-25T01:44:21.491Z,96783.00
2022-11-25T01:46:53.478Z,96783.00
2022-11-25T01:49:43.754Z,96787.00
2022-11-25T01:52:21.108Z,96785.00
2022-11-25T01:55:03.731Z,96794.00
2022-11-25T01:57:50.840Z,96792.00
2022-11-25T02:00:18.586Z,96808.00
2022-11-25T02:02:48.318Z,96788.00
2022-11-25T02:05:21.990Z,96792.00
2022-11-25T02:07:51.341Z,96787.00
2022-11-25T02:10:23.648Z,96794.00
2022-11-25T02:12:51.875Z,96790.00
2022-11-25T02:15:19.271Z,96784.00
2022-11-25T02:17:46.405Z,96786.00
2022-11-25T02:20:24.358Z,96792.00
2022-11-25T02:23:07.346Z,96789.00
2022-11-25T02:25:40.295Z,96789.00
2022-11-25T02:28:22.313Z,96788.00
2022-11-25T02:30:50.494Z,96782.00
2022-11-25T02:33:18.006Z,96777.00
2022-11-25T02:35:59.222Z,96778.00
2022-11-25T02:39:00.743Z,96769.00
2022-11-25T02:41:38.514Z,96770.00
2022-11-25T02:44:05.583Z,96765.00
2022-11-25T02:46:32.564Z,96761.00
2022-11-25T02:49:08.888Z,96762.00
2022-11-25T02:51:36.455Z,96763.00
2022-11-25T02:54:03.348Z,96762.00
2022-11-25T02:56:34.181Z,96767.00
2022-11-25T02:59:01.574Z,96759.00
2022-11-25T03:01:32.288Z,96758.00
2022-11-25T03:04:00.038Z,96766.00
2022-11-25T03:06:36.268Z,96763.00
2022-11-25T03:09:13.652Z,96763.00
2022-11-25T03:12:03.470Z,96757.00
2022-11-25T03:14:43.898Z,96759.00
2022-11-25T03:17:12.818Z,96745.00
2022-11-25T03:19:39.966Z,96758.00
2022-11-25T03:22:06.775Z,96753.00
2022-11-25T03:24:34.362Z,96758.00
2022-11-25T03:27:22.984Z,96756.00
2022-11-25T03:29:50.100Z,96758.00
2022-11-25T03:32:20.457Z,96756.00
2022-11-25T03:35:34.436Z,96754.00
2022-11-25T03:41:32.257Z,96759.00
2022-11-25T03:46:43.489Z,96773.00
2022-11-25T03:49:10.236Z,96759.00
2022-11-25T03:51:36.974Z,96762.00
2022-11-25T03:54:03.828Z,96767.00
2022-11-25T03:56:30.562Z,96760.00
2022-11-25T03:58:58.341Z,96765.00
2022-11-25T04:01:25.194Z,96759.00
2022-11-25T04:03:52.019Z,96763.00
2022-11-25T04:06:20.132Z,96760.00
2022-11-25T04:08:47.048Z,96753.00
2022-11-25T04:11:13.785Z,96756.00
2022-11-25T04:13:40.595Z,96747.00
2022-11-25T04:16:07.319Z,96745.00
2022-11-25T04:18:34.062Z,96747.00
2022-11-25T04:21:00.805Z,96750.00
2022-11-25T04:23:27.541Z,96749.00
2022-11-25T04:25:54.278Z,96754.00
2022-11-25T04:28:21.018Z,96755.00
2022-11-25T04:30:47.894Z,96746.00
2022-11-25T04:33:14.684Z,96746.00
2022-11-25T04:35:41.408Z,96746.00
2022-11-25T04:38:08.129Z,96743.00
2022-11-25T04:40:34.903Z,96745.00
2022-11-25T04:43:06.048Z,96744.00
2022-11-25T04:45:51.869Z,96736.00
2022-11-25T04:48:21.240Z,96743.00
2022-11-25T04:50:47.963Z,96750.00
2022-11-25T04:53:14.941Z,96752.00
2022-11-25T04:55:42.353Z,96757.00
2022-11-25T04:58:11.189Z,96763.00
2022-11-25T05:00:38.065Z,96779.00
2022-11-25T05:03:05.242Z,96777.00
2022-11-25T05:05:32.137Z,96783.00
2022-11-25T05:07:58.862Z,96784.00
2022-11-25T05:10:25.612Z,96791.00
2022-11-25T05:12:52.350Z,96800.00
2022-11-25T05:15:19.134Z,96809.00
2022-11-25T05:17:45.908Z,96806.00
2022-11-25T05:20:13.268Z,96803.00
2022-11-25T05:22:40.006Z,96815.00
2022-11-25T05:25:07.160Z,96820.00
2022-11-25T05:27:33.906Z,96826.00
2022-11-25T05:30:00.662Z,96821.00
2022-11-25T05:32:27.382Z,96833.00
2022-11-25T05:34:54.143Z,96837.00
2022-11-25T05:37:24.373Z,96835.00
2022-11-25T05:39:51.541Z,96836.00
2022-11-25T05:42:18.679Z,96832.00
2022-11-25T05:44:45.437Z,96829.00
2022-11-25T05:47:12.165Z,96838.00
2022-11-25T05:49:38.922Z,96834.00
2022-11-25T05:52:05.745Z,96840.00
2022-11-25T05:54:32.513Z,96848.00
2022-11-25T05:56:59.290Z,96848.00
2022-11-25T05:59:26.233Z,96847.00
2022-11-25T06:01:54.008Z,96854.00
2022-11-25T06:04:20.766Z,96843.00
2022-11-25T06:06:47.493Z,96851.00
2022-11-25T06:09:14.383Z,96845.00
2022-11-25T06:11:41.141Z,96842.00
2022-11-25T06:14:08.233Z,96856.00
2022-11-25T06:16:35.013Z,96859.00
2022-11-25T06:19:06.592Z,96858.00
2022-11-25T06:21:33.970Z,96860.00
2022-11-25T06:24:01.226Z,96871.00
2022-11-25T06:26:27.952Z,96873.00
2022-11-25T06:28:56.318Z,96867.00
2022-11-25T06:31:25.224Z,96864.00
2022-11-25T06:33:53.892Z,96874.00
2022-11-25T06:36:21.976Z,96879.00
2022-11-25T06:38:54.476Z,96880.00
2022-11-25T06:41:22.824Z,96878.00
2022-11-25T06:43:50.014Z,96878.00
2022-11-25T06:46:24.460Z,96875.00
2022-11-25T06:48:55.297Z,96880.00
2022-11-25T06:51:24.398Z,96898.00
2022-11-25T06:53:51.134Z,96894.00
2022-11-25T06:56:22.408Z,96892.00
2022-11-25T06:58:50.720Z,96893.00
2022-11-25T07:01:27.133Z,96902.00
2022-11-25T07:03:59.060Z,96905.00
2022-11-25T07:06:25.945Z,96911.00
2022-11-25T07:08:53.176Z,96918.00
2022-11-25T07:11:28.004Z,96918.00
2022-11-25T07:14:08.105Z,96928.00
2022-11-25T07:16:34.886Z,96925.00
2022-11-25T07:19:02.974Z,96919.00
2022-11-25T07:21:31.869Z,96918.00
2022-11-25T07:24:04.099Z,96938.00
2022-11-25T07:26:35.052Z,96945.00
2022-11-25T07:29:06.372Z,96936.00
2022-11-25T07:31:41.616Z,96950.00
2022-11-25T07:34:18.729Z,96952.00
2022-11-25T07:36:47.512Z,96958.00
2022-11-25T07:39:23.068Z,96959.00
2022-11-25T07:41:51.922Z,96961.00
2022-11-25T07:44:19.742Z,96957.00
2022-11-25T07:46:49.379Z,96966.00
2022-11-25T07:49:20.643Z,96967.00
2022-11-25T07:51:56.650Z,96980.00
2022-11-25T07:54:23.815Z,96985.00
2022-11-25T07:56:51.184Z,96981.00
2022-11-25T07:59:21.405Z,96983.00
2022-11-25T08:01:53.677Z,96991.00
2022-11-25T08:04:21.386Z,96989.00
2022-11-25T08:06:51.529Z,96986.00
2022-11-25T08:09:22.563Z,96990.00
2022-11-25T08:11:50.106Z,97005.00
2022-11-25T08:14:17.510Z,97005.00
2022-11-25T08:16:44.547Z,97001.00
2022-11-25T08:19:14.714Z,96999.00
2022-11-25T08:21:42.399Z,97003.00
2022-11-25T08:24:16.409Z,97009.00
2022-11-25T08:26:43.262Z,97000.00
2022-11-25T08:29:15.081Z,97004.00
2022-11-25T08:31:43.070Z,97002.00
2022-11-25T08:34:19.964Z,97000.00
2022-11-25T08:36:48.830Z,97000.00
2022-11-25T08:42:07.726Z,96989.00
2022-11-25T08:44:35.596Z,96998.00
2022-11-25T08:47:02.429Z,96991.00
2022-11-25T08:49:32.755Z,96988.00
2022-11-25T08:52:01.620Z,96996.00
2022-11-25T08:54:28.361Z,96990.00
2022-11-25T08:56:55.075Z,97001.00
2022-11-25T08:59:22.848Z,97014.00
2022-11-25T09:01:49.637Z,97028.00
2022-11-25T09:04:16.445Z,97024.00
2022-11-25T09:06:43.196Z,97036.00
2022-11-25T09:09:09.933Z,97035.00
2022-11-25T09:11:36.726Z,97032.00
2022-11-25T09:14:03.546Z,97036.00
2022-11-25T09:16:30.638Z,97031.00
2022-11-25T09:18:57.450Z,97024.00
2022-11-25T09:21:24.917Z,97033.00
2022-11-25T09:23:54.485Z,97029.00
2022-11-25T09:26:28.869Z,97039.00
2022-11-25T09:28:56.134Z,97044.00
2022-11-25T09:31:23.919Z,97029.00
2022-11-25T09:33:51.016Z,97039.00
2022-11-25T09:36:19.731Z,97035.00
2022-11-25T09:38:47.487Z,97039.00
2022-11-25T09:42:12.474Z,97040.00
2022-11-25T09:45:36.017Z,97042.00
2022-11-25T09:48:27.705Z,97041.00
2022-11-25T09:51:24.887Z,97044.00
2022-11-25T09:53:56.969Z,97050.00
2022-11-25T09:56:41.849Z,97050.00
2022-11-25T09:59:23.730Z,97048.00
2022-11-25T10:02:01.760Z,97054.00
2022-11-25T10:04:53.497Z,97048.00
2022-11-25T10:07:33.217Z,97050.00
2022-11-25T10:10:04.377Z,97052.00
2022-11-25T10:12:37.991Z,97054.00
2022-11-25T10:15:37.038Z,97055.00
2022-11-25T10:18:15.465Z,97058.00
2022-11-25T10:20:43.037Z,97061.00
2022-11-25T10:23:27.785Z,97056.00
2022-11-25T10:26:09.834Z,97055.00
2022-11-25T10:28:37.427Z,97059.00
2022-11-25T10:31:36.334Z,97058.00
2022-11-25T10:34:25.657Z,97058.00
2022-11-25T10:36:54.431Z,97064.00
2022-11-25T10:39:27.038Z,97061.00
2022-11-25T10:42:03.365Z,97062.00
2022-11-25T10:44:37.054Z,97073.00
2022-11-25T10:47:21.048Z,97070.00
2022-11-25T10:50:07.447Z,97066.00
2022-11-25T10:52:51.397Z,97069.00
2022-11-25T10:55:26.200Z,97066.00
2022-11-25T10:57:54.059Z,97070.00
2022-11-25T11:00:39.031Z,97088.00
2022-11-25T11:03:24.018Z,97083.00
2022-11-25T11:05:54.524Z,97091.00
2022-11-25T11:08:38.350Z,97093.00
2022-11-25T11:11:21.319Z,97088.00
2022-11-25T11:13:50.501Z,97081.00
2022-11-25T11:16:28.075Z,97085.00
2022-11-25T11:18:56.862Z,97088.00
2022-11-25T11:21:41.707Z,97088.00
2022-11-25T11:24:38.120Z,97089.00
2022-11-25T11:27:27.323Z,97098.00
2022-11-25T11:30:29.295Z,97105.00
2022-11-25T11:33:07.112Z,97107.00
2022-11-25T11:36:13.104Z,97108.00
2022-11-25T11:39:08.463Z,97108.00
2022-11-25T11:41:49.896Z,97106.00
2022-11-25T11:44:39.534Z,97113.00
2022-11-25T11:47:26.729Z,97120.00
2022-11-25T11:49:59.160Z,97125.00
2022-11-25T11:52:58.476Z,97130.00
2022-11-25T11:56:26.849Z,97135.00
2022-11-25T11:59:12.365Z,97125.00
2022-11-25T12:02:24.384Z,97126.00
2022-11-25T12:05:16.132Z,97139.00
2022-11-25T12:07:57.930Z,97137.00
2022-11-25T12:10:37.815Z,97143.00
2022-11-25T12:13:19.306Z,97137.00
2022-11-25T12:16:12.581Z,97138.00
2022-11-25T12:19:24.252Z,97149.00
2022-11-25T12:22:33.793Z,97143.00
2022-11-25T12:25:08.722Z,97154.00
2022-11-25T12:27:41.563Z,97158.00
2022-11-25T12:30:20.725Z,97165.00
2022-11-25T12:33:16.820Z,97158.00
2022-11-25T12:35:58.521Z,97159.00
2022-11-25T12:39:00.463Z,97164.00
2022-11-25T12:41:27.107Z,97175.00
2022-11-25T12:44:09.913Z,97181.00
2022-11-25T12:46:48.738Z,97182.00
2022-11-25T12:49:22.249Z,97189.00
2022-11-25T12:52:41.018Z,97194.00
2022-11-25T12:55:19.432Z,97200.00
2022-11-25T12:58:16.597Z,97195.00
2022-11-25T13:01:11.932Z,97193.00
2022-11-25T13:04:01.102Z,97203.00
2022-11-25T13:06:48.582Z,97195.00
2022-11-25T13:10:05.192Z,97194.00
2022-11-25T13:12:56.072Z,97196.00
2022-11-25T13:15:31.969Z,97199.00
2022-11-25T13:18:10.875Z,97204.00
2022-11-25T13:20:47.200Z,97203.00
2022-11-25T13:23:16.957Z,97211.00
2022-11-25T13:25:47.019Z,97214.00
2022-11-25T13:28:30.618Z,97224.00
2022-11-25T13:31:19.336Z,97224.00
2022-11-25T13:33:46.172Z,97226.00
2022-11-25T13:36:25.302Z,97231.00
2022-11-25T13:38:51.937Z,97234.00
2022-11-25T13:41:37.010Z,97235.00
2022-11-25T13:44:21.524Z,97238.00
2022-11-25T13:46:52.276Z,97229.00
2022-11-25T13:49:50.014Z,97232.00
2022-11-25T13:52:40.089Z,97242.00
2022-11-25T13:55:39.026Z,97243.00
2022-11-25T13:58:25.579Z,97254.00
2022-11-25T14:01:04.055Z,97245.00
2022-11-25T14:03:30.777Z,97254.00
2022-11-25T14:06:19.249Z,97260.00
2022-11-25T14:09:28.150Z,97253.00
2022-11-25T14:12:37.462Z,97255.00
2022-11-25T14:15:49.513Z,97260.00
2022-11-25T14:19:12.023Z,97260.00
2022-11-25T14:22:05.472Z,97272.00
2022-11-25T14:25:14.880Z,97262.00
2022-11-25T14:27:47.955Z,97261.00
2022-11-25T14:30:16.949Z,97264.00
2022-11-25T14:32:56.880Z,97272.00
2022-11-25T14:35:38.954Z,97276.00
2022-11-25T14:38:19.923Z,97277.00
2022-11-25T14:41:00.029Z,97266.00
2022-11-25T14:43:29.274Z,97275.00
2022-11-25T14:46:15.291Z,97284.00
2022-11-25T14:48:43.894Z,97287.00
2022-11-25T14:51:16.499Z,97291.00
2022-11-25T14:53:50.646Z,97306.00
2022-11-25T14:56:29.997Z,97309.00
2022-11-25T14:58:58.860Z,97310.00
2022-11-25T15:01:28.446Z,97309.00
2022-11-25T15:04:25.894Z,97307.00
2022-11-25T15:07:00.774Z,97307.00
2022-11-25T15:09:42.759Z,97318.00
2022-11-25T15:12:19.373Z,97327.00
2022-11-25T15:14:53.334Z,97334.00
2022-11-25T15:17:32.554Z,97343.00
2022-11-25T15:20:10.354Z,97345.00
2022-11-25T15:22:37.091Z,97347.00
2022-11-25T15:25:14.311Z,97345.00
2022-11-25T15:27:49.640Z,97346.00
2022-11-25T15:30:29.175Z,97354.00
2022-11-25T15:32:57.039Z,97363.00
2022-11-25T15:35:27.024Z,97366.00
2022-11-25T15:37:54.322Z,97358.00
2022-11-25T15:40:32.216Z,97360.00
2022-11-25T15:43:00.846Z,97375.00
2022-11-25T15:45:37.196Z,97376.00
2022-11-25T15:48:04.490Z,97377.00
2022-11-25T15:50:34.175Z,97373.00
2022-11-25T15:53:01.653Z,97383.00
2022-11-25T15:55:36.493Z,97380.00
2022-11-25T15:58:04.765Z,97388.00
2022-11-25T16:00:31.737Z,97388.00
2022-11-25T16:02:59.413Z,97396.00
2022-11-25T16:05:35.443Z,97393.00
2022-11-25T16:08:19.112Z,97390.00
2022-11-25T16:10:45.922Z,97402.00
2022-11-25T16:13:22.620Z,97397.00
2022-11-25T16:15:58.575Z,97393.00
2022-11-25T16:18:40.652Z,97397.00
2022-11-25T16:21:15.796Z,97412.00
2022-11-25T16:23:47.746Z,97419.00
2022-11-25T16:26:17.731Z,97410.00
2022-11-25T16:28:54.039Z,97416.00
2022-11-25T16:31:21.872Z,97418.00
2022-11-25T16:33:48.711Z,97426.00
2022-11-25T16:36:16.081Z,97426.00
2022-11-25T16:39:11.540Z,97424.00
2022-11-25T16:42:29.748Z,97432.00
2022-11-25T16:45:29.081Z,97439.00
2022-11-25T16:47:56.138Z,97442.00
2022-11-25T16:50:34.313Z,97447.00
2022-11-25T16:53:13.703Z,97448.00
2022-11-25T16:55:50.834Z,97461.00
2022-11-25T16:58:37.166Z,97466.00
2022-11-25T17:01:26.816Z,97473.00
2022-11-25T17:03:53.909Z,97477.00
2022-11-25T17:06:24.533Z,97479.00
2022-11-25T17:08:52.113Z,97484.00
2022-11-25T17:11:31.145Z,97477.00
2022-11-25T17:14:04.847Z,97477.00
2022-11-25T17:16:33.832Z,97477.00
2022-11-25T17:19:00.829Z,97488.00
2022-11-25T17:21:29.072Z,97486.00
2022-11-25T17:24:05.033Z,97491.00
2022-11-25T17:26:43.010Z,97504.00
2022-11-25T17:29:23.182Z,97505.00
2022-11-25T17:31:55.116Z,97515.00
2022-11-25T17:34:25.995Z,97517.00
2022-11-25T17:36:53.025Z,97514.00
2022-11-25T17:39:22.213Z,97520.00
2022-11-25T17:41:54.057Z,97526.00
2022-11-25T17:44:31.199Z,97533.00
2022-11-25T17:47:10.541Z,97524.00
2022-11-25T17:49:48.307Z,97532.00
2022-11-25T17:52:15.428Z,97539.00
2022-11-25T17:54:42.210Z,97544.00
2022-11-25T17:57:15.974Z,97543.00
2022-11-25T17:59:42.810Z,97556.00
2022-11-25T18:02:21.806Z,97561.00
2022-11-25T18:04:49.928Z,97567.00
2022-11-25T18:07:17.440Z,97566.00
2022-11-25T18:09:44.888Z,97574.00
2022-11-25T18:12:25.314Z,97577.00
2022-11-25T18:14:52.145Z,97589.00
2022-11-25T18:17:19.284Z,97595.00
2022-11-25T18:19:53.156Z,97590.00
2022-11-25T18:22:23.427Z,97585.00
2022-11-25T18:24:50.420Z,97593.00
2022-11-25T18:27:31.975Z,97599.00
2022-11-25T18:30:01.354Z,97597.00
2022-11-25T18:32:28.083Z,97607.00
2022-11-25T18:34:54.910Z,97609.00
2022-11-25T18:37:21.720Z,97606.00
2022-11-25T18:39:48.537Z,97608.00
2022-11-25T18:42:25.978Z,97612.00
2022-11-25T18:44:56.380Z,97614.00
2022-11-25T18:47:23.846Z,97619.00
2022-11-25T18:49:55.384Z,97623.00
2022-11-25T18:52:24.637Z,97626.00
2022-11-25T18:54:51.639Z,97631.00
2022-11-25T18:57:18.467Z,97631.00
2022-11-25T18:59:48.023Z,97636.00
2022-11-25T19:02:23.108Z,97643.00
2022-11-25T19:04:49.929Z,97650.00
2022-11-25T19:07:16.760Z,97648.00
2022-11-25T19:09:43.536Z,97658.00
2022-11-25T19:12:15.880Z,97660.00
2022-11-25T19:14:42.999Z,97663.00
2022-11-25T19:17:21.635Z,97663.00
2022-11-25T19:19:48.416Z,97666.00
2022-11-25T19:22:17.589Z,97665.00
2022-11-25T19:24:45.966Z,97681.00
2022-11-25T19:27:24.006Z,97679.00
2022-11-25T19:29:52.300Z,97680.00
2022-11-25T19:32:24.706Z,97688.00
2022-11-25T19:35:06.372Z,97683.00
2022-11-25T19:37:33.153Z,97688.00
2022-11-25T19:39:59.939Z,97697.00
2022-11-25T19:42:28.230Z,97696.00
2022-11-25T19:44:55.137Z,97700.00
2022-11-25T19:47:25.099Z,97692.00
2022-11-25T19:49:56.446Z,97704.00
2022-11-25T19:52:28.241Z,97711.00
2022-11-25T19:54:54.970Z,97711.00
2022-11-25T19:57:24.423Z,97719.00
2022-11-25T19:59:51.328Z,97719.00
2022-11-25T20:02:22.162Z,97733.00
2022-11-25T20:04:53.278Z,97741.00
2022-11-25T20:07:21.577Z,97750.00
2022-11-25T20:09:51.384Z,97757.00
2022-11-25T20:12:21.297Z,97754.00
2022-11-25T20:14:48.582Z,97759.00
2022-11-25T20:17:31.196Z,97766.00
2022-11-25T20:20:07.095Z,97776.00
2022-11-25T20:22:37.650Z,97775.00
2022-11-25T20:25:07.295Z,97771.00
2022-11-25T20:27:34.183Z,97781.00
2022-11-25T20:30:00.942Z,97780.00
2022-11-25T20:32:31.341Z,97783.00
2022-11-25T20:34:59.388Z,97787.00
2022-11-25T20:37:29.466Z,97787.00
2022-11-25T20:40:00.132Z,97788.00
2022-11-25T20:42:27.685Z,97790.00
2022-11-25T20:44:57.581Z,97788.00
2022-11-25T20:47:26.457Z,97805.00
2022-11-25T20:49:53.924Z,97805.00
2022-11-25T20:52:32.010Z,97809.00
2022-11-25T20:54:59.901Z,97805.00
2022-11-25T20:57:26.618Z,97811.00
2022-11-25T20:59:53.431Z,97819.00
2022-11-25T21:02:21.598Z,97828.00
2022-11-25T21:04:48.533Z,97821.00
2022-11-25T21:07:17.808Z,97828.00
2022-11-25T21:09:44.842Z,97829.00
2022-11-25T21:12:19.215Z,97821.00
2022-11-25T21:14:47.238Z,97830.00
2022-11-25T21:17:13.978Z,97826.00
2022-11-25T21:19:40.721Z,97833.00
2022-11-25T21:22:12.901Z,97834.00
2022-11-25T21:24:42.314Z,97827.00
2022-11-25T21:27:15.580Z,97839.00
2022-11-25T21:29:46.206Z,97835.00
2022-11-25T21:32:26.014Z,97844.00
2022-11-25T21:34:53.555Z,97837.00
2022-11-25T21:37:31.079Z,97841.00
2022-11-25T21:40:01.013Z,97852.00
2022-11-25T21:42:30.049Z,97854.00
2022-11-25T21:44:56.844Z,97852.00
2022-11-25T21:47:26.998Z,97850.00
2022-11-25T21:49:53.868Z,97859.00
2022-11-25T21:52:20.737Z,97850.00
2022-11-25T21:54:47.731Z,97855.00
2022-11-25T21:57:27.090Z,97865.00
2022-11-25T21:59:54.524Z,97859.00
2022-11-25T22:02:24.079Z,97858.00
2022-11-25T22:04:52.210Z,97856.00
2022-11-25T22:07:19.008Z,97850.00
2022-11-25T22:09:45.783Z,97857.00
2022-11-25T22:12:38.188Z,97857.00
2022-11-25T22:15:20.971Z,97849.00
2022-11-25T22:17:48.952Z,97850.00
2022-11-25T22:20:31.022Z,97848.00
2022-11-25T22:22:57.803Z,97846.00
2022-11-25T22:25:27.206Z,97849.00
2022-11-25T22:27:54.207Z,97847.00
2022-11-25T22:30:22.867Z,97845.00
2022-11-25T22:32:59.540Z,97852.00
2022-11-25T22:35:26.354Z,97853.00
2022-11-25T22:37:55.369Z,97853.00
2022-11-25T22:40:23.421Z,97858.00
2022-11-25T22:42:51.783Z,97855.00
2022-11-25T22:45:44.906Z,97865.00
2022-11-25T22:48:18.898Z,97865.00
2022-11-25T22:50:46.815Z,97863.00
2022-11-25T22:53:17.954Z,97865.00
2022-11-25T22:55:45.734Z,97863.00
2022-11-25T22:58:14.359Z,97870.00
2022-11-25T23:00:45.254Z,97871.00
2022-11-25T23:03:29.076Z,97879.00
2022-11-25T23:05:56.959Z,97883.00
2022-11-25T23:08:27.731Z,97894.00
2022-11-25T23:10:55.638Z,97892.00
2022-11-25T23:13:23.056Z,97896.00
2022-11-25T23:15:53.557Z,97906.00
2022-11-25T23:18:44.091Z,97892.00
2022-11-25T23:21:22.363Z,97900.00
2022-11-25T23:23:49.986Z,97907.00
2022-11-25T23:26:17.084Z,97898.00
2022-11-25T23:28:43.839Z,97894.00
2022-11-25T23:31:13.862Z,97902.00
2022-11-25T23:33:45.271Z,97901.00
2022-11-25T23:36:13.361Z,97893.00
2022-11-25T23:38:49.362Z,97896.00
2022-11-25T23:41:22.455Z,97901.00
2022-11-25T23:43:49.966Z,97906.00
2022-11-25T23:46:20.592Z,97906.00
2022-11-25T23:48:55.487Z,97904.00
2022-11-25T23:51:27.327Z,97908.00
2022-11-25T23:53:55.829Z,97909.00
2022-11-25T23:56:23.335Z,97912.00
2022-11-25T23:58:50.429Z,97911.00
